AirNav   Duncan Aviation - Near you to keep you flying
 
 1292 users online  

VG17 Defense Supply Center Richmond Heliport
Richmond, Virginia, USA

GOING TO RICHMOND?


FAA INFORMATION EFFECTIVE 08 SEPTEMBER 2022

Location

FAA Identifier: VG17
Lat/Long: 37-25-25.0000N 077-27-02.0000W
37-25.416667N 077-27.033333W
37.4236111,-77.4505556
(estimated)
Elevation: 115 ft. / 35 m (estimated)
Variation: 09W (1995)
From city: 10 miles N of RICHMOND, VA
Time zone: UTC -4 (UTC -5 during Standard Time)
Zip code: 23237

Heliport Operations

Heliport use: Private use. Permission required prior to landing
Activation date: 02/2000
Control tower: no
ARTCC: WASHINGTON CENTER
FSS: LEESBURG FLIGHT SERVICE STATION
Attendance: UNATNDD
Wind indicator: yes
Segmented circle: no
Lights: SS-SR

Heliport Communications

WX AWOS-3PT at FCI (4 nm W): 128.625 (804-271-8426)
WX ASOS at RIC (8 nm NE): PHONE 804-236-1091
WX AWOS-3 at PTB (15 nm S): 133.325 (804-861-5551)
WX AWOS-3 at W96 (16 nm E): 119.875 (804-932-8863)
WX ASOS at OFP (17 nm N): 119.025 (804-752-2902)

Nearby radio navigation aids

VOR radial/distance  VOR name  Freq  Var
RICr242/7.8RICHMOND VORTAC114.1009W
HPWr296/16.9HOPEWELL VORTAC112.0006W
FAKr115/19.1FLAT ROCK VORTAC113.3006W
HCMr275/35.2HARCUM VORTAC108.8007W

 
NDB name  Hdg/Dist  Freq  Var  ID
BLACKSTONE067/33.532609WBKT -... -.- -
WAKEFIELD332/34.127411WAKQ .- -.- --.-

Heliport Services

Runway Information

Helipad H1

Dimensions: 98 x 98 ft. / 30 x 30 m
Surface: asphalt, in good condition
Runway edge lights: PERI
Traffic pattern: leftleft

Heliport Ownership and Management from official FAA records

Ownership: U.S. Army
Owner: U.S. ARMY
8000 JEFF DAVIS HWY
RICHMOND, VA 23297-5201
Phone 804-279-4888
Manager: DENNIS B. LACEY
8000 JEFF DAVIS HWY
RICHMOND, VA 23297-5201
Phone 804-279-4888

Additional Remarks

FOR CD CTC POTOMAC APCH AT 866-640-4124.

Instrument Procedures

There are no published instrument procedures at VG17.

Some nearby airports with instrument procedures:

KFCI - Richmond Executive-Chesterfield County Airport (4 nm W)
KRIC - Richmond International Airport (8 nm NE)
KPTB - Dinwiddie County Airport (15 nm S)
W96 - New Kent County Airport (16 nm E)
KOFP - Hanover County Municipal Airport (17 nm N)
 
Loc | Ops | Rwys | IFR | FBO | Links
Com | Nav | Svcs | Stats | Notes
Area around VG17 (Defense Supply Center Richmond Heliport)
 
Road maps at: MapQuest Bing Google
 
Aerial photo
No photo
 
Sectional chart

 
Airport distance calculator
Flying to Defense Supply Center Richmond Heliport? Find the distance to fly.

From to VG17

Sunrise and sunset
Times for 03-Oct-2022
 Local
(UTC-4)
 Zulu
(UTC)
Morning civil twilight06:4210:42
Sunrise07:0811:08
Sunset18:5022:50
Evening civil twilight19:1623:16

Current date and time
Zulu (UTC)  04-Oct-2022 00:56:10
Local (UTC-4)  03-Oct-2022 20:56:10
 
METAR
KFCI 
4nm W 
040014Z AUTO 34011G19KT 10SM FEW023 OVC031 10/06 A3016 RMK AO2
KRIC 
8nm NE 
032354Z 01015KT 10SM BKN016 BKN035 BKN060 09/07 A3016 RMK AO2 RAB01E47 SLP217 P0000 60000 T00940072 10128 20094 52005 $
KPTB 
16nm S 
040035Z AUTO 36011G17KT 10SM -DZ OVC020 10/06 A3016 RMK AO2 T01000060
KW96 
16nm E 
040035Z AUTO 34004KT 10SM OVC011 08/08 A3015 RMK AO1 P0001 T00820075
KOFP 
17nm N 
032354Z AUTO VRB06G16KT 10SM -RA FEW020 BKN033 OVC055 09/07 A3019 RMK AO2 RAB07 SLP222 P0000 60000 T00940072 10133 20094 53008
TAF
KRIC 
8nm NE 
032359Z 0400/0424 36014G22KT 6SM -RA BR OVC015 FM041700 35012G20KT P6SM OVC009
NOTAMs
Click for the latest NOTAMs
NOTAMs are issued by the DoD/FAA and will open in a separate window not controlled by AirNav.

 

 
 

Would you like to see your business listed on this page?

 If your business provides an interesting product or service to pilots, flight crews, aircraft, or users of the Defense Supply Center Richmond Heliport, you should consider listing it here.  To start the listing process, click on the button below
 
Add a business
 

Other Pages about Defense Supply Center Richmond Heliport

Update a link
 
Copyright © AirNav, LLC. All rights reserved. Privacy Policy  Contact